Time;durP1;ratioP1;P1;durP2;ratioP2;P2;SDS_P1;SDS_P2;PMS_P1;PMS_P2;Temp;Humidity;BMP_temperature;BMP_pressure;BME280_temperature;BME280_humidity;BME280_pressure;Samples;Min_cycle;Max_cycle;Signal;HPM_P1;HPM_P2
2023/02/25 00:08:17;;;;;;;0.20;0.10;;;9.90;99.90;;;;;;21007222;28;20923;-68
2023/02/25 00:18:22;;;;;;;0.20;0.10;;;9.70;99.90;;;;;;20950287;28;20470;-68
2023/02/25 00:28:26;;;;;;;0.20;0.10;;;9.70;99.90;;;;;;20904285;28;20472;-69
2023/02/25 00:38:31;;;;;;;0.20;0.10;;;9.80;99.90;;;;;;20941995;28;20508;-67
2023/02/25 00:48:35;;;;;;;0.20;0.10;;;9.80;99.90;;;;;;21036952;28;20407;-68
2023/02/25 00:58:41;;;;;;;0.20;0.10;;;9.70;99.90;;;;;;21030178;28;20405;-67
2023/02/25 01:08:45;;;;;;;0.20;0.10;;;9.70;99.90;;;;;;21057295;28;20411;-68
2023/02/25 01:18:52;;;;;;;0.20;0.10;;;9.60;99.90;;;;;;21056417;28;20420;-67
2023/02/25 01:28:56;;;;;;;0.20;0.10;;;9.70;99.90;;;;;;21061763;28;20433;-67
2023/02/25 01:39:02;;;;;;;0.20;0.10;;;9.60;99.90;;;;;;20981424;28;20394;-68
2023/02/25 01:49:11;;;;;;;0.20;0.10;;;9.40;99.90;;;;;;21043777;28;20416;-66
2023/02/25 01:59:18;;;;;;;0.20;0.10;;;9.40;99.90;;;;;;21043360;28;20432;-67
2023/02/25 02:09:25;;;;;;;0.20;0.10;;;9.40;99.90;;;;;;21042813;28;21234;-67
2023/02/25 02:19:43;;;;;;;0.20;0.10;;;9.40;99.90;;;;;;21056260;28;20760;-67
2023/02/25 02:30:14;;;;;;;0.20;0.10;;;9.30;99.90;;;;;;21049202;28;20404;-68
2023/02/25 02:40:29;;;;;;;0.20;0.10;;;9.30;99.90;;;;;;21067998;28;21182;-68
2023/02/25 02:50:37;;;;;;;0.20;0.10;;;9.30;99.90;;;;;;21053239;28;20896;-67
2023/02/25 03:00:46;;;;;;;0.20;0.10;;;9.40;99.90;;;;;;21070183;28;20400;-66
2023/02/25 03:10:50;;;;;;;0.20;0.10;;;9.50;99.90;;;;;;21070526;28;20919;-66
2023/02/25 03:20:57;;;;;;;0.20;0.10;;;9.50;99.90;;;;;;21069923;28;20397;-68
2023/02/25 03:31:06;;;;;;;0.20;0.10;;;9.50;99.90;;;;;;21052664;28;20416;-66
2023/02/25 03:41:13;;;;;;;0.20;0.10;;;9.50;99.90;;;;;;20984719;28;20896;-66
2023/02/25 03:51:21;;;;;;;0.20;0.10;;;9.60;99.90;;;;;;21045914;28;20462;-67
2023/02/25 04:01:30;;;;;;;0.20;0.10;;;9.50;99.90;;;;;;21064028;28;20415;-67
2023/02/25 04:11:34;;;;;;;0.20;0.10;;;9.30;99.90;;;;;;21066599;28;20419;-67
2023/02/25 04:21:39;;;;;;;0.20;0.10;;;9.20;99.90;;;;;;21060431;28;20542;-67
2023/02/25 04:31:43;;;;;;;0.20;0.10;;;9.20;99.90;;;;;;21060254;28;20414;-67
2023/02/25 04:41:49;;;;;;;0.20;0.10;;;9.10;99.90;;;;;;21059000;28;20946;-66
2023/02/25 04:51:53;;;;;;;0.20;0.10;;;9.10;99.90;;;;;;21039052;28;20401;-66
2023/02/25 05:01:59;;;;;;;0.20;0.10;;;8.90;99.90;;;;;;21053785;28;20743;-67
2023/02/25 05:12:03;;;;;;;0.20;0.10;;;8.80;99.90;;;;;;21057899;28;20852;-67
2023/02/25 05:22:09;;;;;;;0.20;0.10;;;8.60;99.90;;;;;;21058093;28;20438;-67
2023/02/25 05:32:13;;;;;;;0.20;0.10;;;8.40;99.90;;;;;;21059518;28;20411;-67
2023/02/25 05:42:19;;;;;;;0.20;0.10;;;8.20;99.90;;;;;;21060184;28;20420;-66
2023/02/25 05:52:22;;;;;;;0.20;0.10;;;8.00;99.90;;;;;;21040556;28;20420;-67
2023/02/25 06:02:28;;;;;;;0.20;0.10;;;7.90;99.90;;;;;;21066761;28;20396;-67
2023/02/25 06:12:33;;;;;;;0.20;0.10;;;7.90;99.90;;;;;;21073883;28;20415;-67
2023/02/25 06:22:39;;;;;;;0.20;0.10;;;7.90;99.90;;;;;;21073730;28;20883;-68
2023/02/25 06:32:43;;;;;;;0.20;0.10;;;7.70;99.90;;;;;;21029759;28;20438;-68
2023/02/25 06:42:48;;;;;;;0.20;0.10;;;7.80;99.90;;;;;;20970457;28;20422;-69
2023/02/25 06:52:52;;;;;;;0.20;0.10;;;7.80;99.90;;;;;;20987867;28;20422;-67
2023/02/25 07:02:58;;;;;;;0.20;0.10;;;8.00;99.90;;;;;;20969040;28;20424;-69
2023/02/25 07:13:04;;;;;;;0.20;0.10;;;8.00;99.90;;;;;;20967204;28;20897;-68
2023/02/25 07:23:09;;;;;;;0.20;0.10;;;8.30;99.90;;;;;;20965074;28;20904;-68
2023/02/25 07:33:13;;;;;;;0.20;0.10;;;8.60;99.90;;;;;;21032273;28;20417;-69
2023/02/25 07:43:18;;;;;;;0.20;0.10;;;8.90;99.90;;;;;;21064276;28;20396;-69
2023/02/25 07:53:22;;;;;;;0.20;0.10;;;9.10;99.90;;;;;;21064673;28;20412;-67
2023/02/25 08:03:27;;;;;;;0.20;0.10;;;9.40;99.90;;;;;;21063547;28;20455;-68
2023/02/25 08:13:31;;;;;;;0.20;0.10;;;9.60;99.90;;;;;;21061096;28;20412;-68
2023/02/25 08:23:36;;;;;;;0.20;0.10;;;9.80;99.90;;;;;;21062061;28;20527;-69
2023/02/25 08:33:42;;;;;;;0.20;0.10;;;10.40;99.90;;;;;;21060526;28;20469;-69
2023/02/25 08:43:48;;;;;;;0.20;0.10;;;11.00;99.90;;;;;;21023943;28;20890;-68
2023/02/25 08:53:52;;;;;;;0.20;0.10;;;11.40;99.90;;;;;;21109304;28;20731;-67
2023/02/25 09:03:58;;;;;;;0.20;0.10;;;10.90;99.90;;;;;;21123892;28;20426;-66
2023/02/25 09:14:02;;;;;;;0.20;0.10;;;10.70;99.90;;;;;;21124403;28;20442;-66
2023/02/25 09:24:08;;;;;;;0.20;0.10;;;10.80;99.90;;;;;;21142088;28;20402;-66
2023/02/25 09:34:14;;;;;;;0.20;0.10;;;10.80;99.90;;;;;;21140029;28;20509;-68
2023/02/25 09:44:22;;;;;;;0.20;0.10;;;11.20;99.90;;;;;;21139159;28;20411;-67
2023/02/25 09:54:33;;;;;;;0.20;0.10;;;11.10;99.90;;;;;;21140261;28;20414;-68
2023/02/25 10:04:45;;;;;;;0.20;0.10;;;11.40;99.90;;;;;;21119447;28;20473;-68
2023/02/25 10:15:15;;;;;;;0.20;0.10;;;11.70;99.90;;;;;;21134362;28;20432;-68
2023/02/25 10:25:23;;;;;;;0.20;0.10;;;11.20;99.90;;;;;;21118764;28;21007;-68
2023/02/25 10:35:32;;;;;;;0.20;0.10;;;11.10;99.90;;;;;;21137236;28;20757;-69
2023/02/25 10:45:40;;;;;;;0.20;0.10;;;11.00;99.90;;;;;;21124638;28;20426;-69
2023/02/25 10:55:51;;;;;;;0.20;0.10;;;11.20;99.90;;;;;;21133639;28;20423;-69
2023/02/25 11:06:18;;;;;;;0.20;0.10;;;11.40;99.90;;;;;;21150199;28;20402;-68
2023/02/25 11:16:26;;;;;;;0.20;0.10;;;11.80;99.90;;;;;;21129568;28;20418;-70
2023/02/25 11:26:34;;;;;;;0.20;0.03;;;12.10;99.90;;;;;;21150647;28;20722;-66
2023/02/25 11:36:39;;;;;;;0.20;0.10;;;12.80;99.90;;;;;;21149187;28;20421;-66
2023/02/25 11:46:46;;;;;;;0.20;0.00;;;13.10;99.90;;;;;;21131386;28;20980;-70
2023/02/25 11:56:53;;;;;;;0.20;0.10;;;13.40;99.90;;;;;;21148523;28;20399;-69
2023/02/25 12:07:20;;;;;;;0.20;0.10;;;13.40;99.90;;;;;;21129999;28;20402;-69
2023/02/25 12:18:12;;;;;;;0.20;0.10;;;13.80;99.90;;;;;;21144862;28;20391;-68
2023/02/25 12:28:46;;;;;;;0.20;0.10;;;14.40;99.90;;;;;;21145605;28;20391;-70
2023/02/25 12:39:22;;;;;;;0.20;0.10;;;14.10;99.90;;;;;;21107838;28;20386;-69
2023/02/25 12:49:47;;;;;;;0.20;0.10;;;13.80;99.90;;;;;;21122010;28;20505;-69
2023/02/25 13:00:24;;;;;;;0.60;0.60;;;14.40;99.90;;;;;;21145282;28;20438;-68
2023/02/25 13:10:39;;;;;;;0.20;0.10;;;14.00;99.90;;;;;;21094668;28;20490;-69
2023/02/25 13:21:16;;;;;;;0.20;0.10;;;13.90;99.90;;;;;;21108999;28;20488;-69
2023/02/25 13:31:33;;;;;;;0.20;0.07;;;13.70;99.90;;;;;;21117941;28;20403;-70
2023/02/25 13:41:51;;;;;;;0.20;0.10;;;13.80;99.90;;;;;;21123817;28;20541;-69
2023/02/25 13:52:18;;;;;;;0.20;0.10;;;13.60;99.90;;;;;;21123304;28;20413;-71
2023/02/25 14:02:58;;;;;;;0.20;0.10;;;13.40;99.90;;;;;;21120756;28;20486;-71
2023/02/25 14:13:32;;;;;;;0.20;0.10;;;13.30;99.90;;;;;;21139248;28;20506;-70
2023/02/25 14:23:47;;;;;;;0.20;0.00;;;13.10;99.90;;;;;;21126582;28;20861;-69
2023/02/25 14:34:18;;;;;;;0.20;0.10;;;13.50;99.90;;;;;;21134124;28;21277;-69
2023/02/25 14:44:32;;;;;;;0.20;0.10;;;14.30;99.90;;;;;;21075813;28;20483;-69
2023/02/25 14:55:22;;;;;;;0.20;0.10;;;14.60;99.90;;;;;;21032555;28;20409;-68
2023/02/25 15:05:43;;;;;;;0.20;0.10;;;15.60;99.90;;;;;;21116745;28;20390;-68
2023/02/25 15:16:17;;;;;;;0.20;0.00;;;15.70;99.90;;;;;;21148045;28;20471;-69
2023/02/25 15:26:24;;;;;;;0.20;0.10;;;16.00;99.90;;;;;;21147364;28;20411;-70
2023/02/25 15:36:41;;;;;;;0.20;0.10;;;16.10;99.90;;;;;;21083096;28;20407;-69
2023/02/25 15:46:46;;;;;;;0.20;0.00;;;15.60;99.90;;;;;;21124989;28;20406;-70
2023/02/25 15:56:52;;;;;;;0.20;0.10;;;15.40;99.90;;;;;;21106689;28;20481;-69
2023/02/25 16:06:59;;;;;;;0.20;0.10;;;14.60;99.90;;;;;;21127088;28;20407;-69
2023/02/25 16:17:14;;;;;;;0.20;0.10;;;14.70;99.90;;;;;;21147193;28;20402;-70
2023/02/25 16:27:30;;;;;;;0.20;0.00;;;16.50;99.90;;;;;;21148080;28;20403;-69
2023/02/25 16:37:44;;;;;;;0.20;0.10;;;16.50;99.90;;;;;;21094941;28;20537;-69
2023/02/25 16:47:55;;;;;;;0.20;0.00;;;15.40;99.90;;;;;;21120074;28;20853;-70
2023/02/25 16:58:07;;;;;;;0.20;0.10;;;15.30;99.90;;;;;;21019985;28;20403;-69
2023/02/25 17:08:15;;;;;;;0.20;0.10;;;14.40;99.90;;;;;;21036022;28;20410;-69
2023/02/25 17:18:26;;;;;;;0.20;0.10;;;13.90;99.90;;;;;;21049467;28;20447;-71
2023/02/25 17:28:32;;;;;;;0.20;0.10;;;13.40;99.90;;;;;;21066622;28;20485;-69
2023/02/25 17:38:37;;;;;;;0.20;0.10;;;13.20;99.90;;;;;;21046396;28;20393;-69
2023/02/25 17:48:44;;;;;;;0.20;0.10;;;12.80;99.90;;;;;;21039925;28;20419;-67
2023/02/25 17:58:50;;;;;;;0.20;0.05;;;12.40;99.90;;;;;;21099531;28;20437;-67
2023/02/25 18:08:55;;;;;;;0.20;0.10;;;12.10;99.90;;;;;;21135476;28;20406;-67
2023/02/25 18:19:01;;;;;;;0.20;0.10;;;12.00;99.90;;;;;;21069104;28;20423;-67
2023/02/25 18:29:09;;;;;;;0.20;0.10;;;11.80;99.90;;;;;;21069143;28;20408;-68
2023/02/25 18:39:14;;;;;;;0.20;0.10;;;11.70;99.90;;;;;;21002183;28;20410;-68
2023/02/25 18:49:18;;;;;;;0.20;0.10;;;11.30;99.90;;;;;;21058122;28;20413;-70
2023/02/25 18:59:23;;;;;;;0.20;0.10;;;11.10;99.90;;;;;;21067534;28;20427;-69
2023/02/25 19:09:27;;;;;;;0.20;0.10;;;11.20;99.90;;;;;;21064119;28;20416;-67
2023/02/25 19:19:33;;;;;;;0.20;0.10;;;11.00;99.90;;;;;;21062654;28;20415;-66
2023/02/25 19:29:36;;;;;;;0.20;0.10;;;11.10;99.90;;;;;;21041596;28;20929;-67
2023/02/25 19:39:42;;;;;;;0.20;0.10;;;11.00;99.90;;;;;;21044657;28;20470;-67
2023/02/25 19:49:46;;;;;;;0.20;0.10;;;10.90;99.90;;;;;;21029427;28;20408;-68
2023/02/25 19:59:51;;;;;;;0.20;0.07;;;10.50;99.90;;;;;;21061145;28;20435;-70
2023/02/25 20:09:55;;;;;;;0.20;0.10;;;10.50;99.90;;;;;;21060033;28;20405;-67
2023/02/25 20:20:00;;;;;;;0.20;0.10;;;10.50;99.90;;;;;;21060237;28;20419;-68
2023/02/25 20:30:05;;;;;;;0.20;0.10;;;10.50;99.90;;;;;;21040071;28;20405;-68
2023/02/25 20:40:12;;;;;;;0.20;0.10;;;10.20;99.90;;;;;;21034258;28;20396;-66
2023/02/25 20:50:19;;;;;;;0.20;0.03;;;10.10;99.90;;;;;;21042119;28;20557;-66
2023/02/25 21:00:26;;;;;;;0.20;0.10;;;10.50;99.90;;;;;;21013734;28;20416;-67
2023/02/25 21:10:29;;;;;;;0.20;0.07;;;10.60;99.90;;;;;;20995056;28;20414;-68
2023/02/25 21:20:35;;;;;;;0.20;0.00;;;10.80;99.90;;;;;;20990982;28;20393;-65
2023/02/25 21:30:39;;;;;;;0.20;0.00;;;10.50;99.90;;;;;;21036034;28;20427;-66
2023/02/25 21:40:44;;;;;;;0.20;0.00;;;10.60;99.90;;;;;;21076740;28;20949;-68
2023/02/25 21:50:48;;;;;;;0.20;0.03;;;11.20;99.90;;;;;;21040212;28;20448;-67
2023/02/25 22:00:53;;;;;;;0.70;0.70;;;11.10;99.90;;;;;;21060024;28;20403;-66
2023/02/25 22:10:57;;;;;;;0.20;0.10;;;10.90;99.90;;;;;;21113487;28;20415;-67
2023/02/25 22:21:08;;;;;;;0.20;0.10;;;10.60;99.90;;;;;;21091691;28;20405;-66
2023/02/25 22:31:13;;;;;;;0.20;0.10;;;10.80;99.90;;;;;;21084216;28;20433;-67
2023/02/25 22:41:21;;;;;;;0.20;0.03;;;10.50;99.90;;;;;;20992095;28;20440;-67
2023/02/25 22:51:27;;;;;;;0.20;0.10;;;10.00;99.90;;;;;;21060166;28;20845;-67
2023/02/25 23:01:33;;;;;;;0.20;0.10;;;9.90;99.90;;;;;;21067890;28;20724;-66
2023/02/25 23:11:39;;;;;;;0.20;0.10;;;9.70;99.90;;;;;;21060766;28;20527;-66
2023/02/25 23:21:45;;;;;;;0.20;0.10;;;9.70;99.90;;;;;;20988826;28;20406;-67
2023/02/25 23:31:49;;;;;;;0.20;0.10;;;9.90;99.90;;;;;;20997654;28;20919;-66
2023/02/25 23:41:54;;;;;;;0.20;0.10;;;9.50;99.90;;;;;;20987815;28;20890;-66
2023/02/25 23:51:58;;;;;;;0.20;0.10;;;9.20;99.90;;;;;;20995196;28;20460;-65
